Terminal Aerodrome Forecast
Issued by NWS Memphis, TN

Home | Current Version | Previous Version | Text Only | Print | Product List | Glossary On
Versions: 1 2 3 4 5 6 7 8 9 10 11 12 13 14
000
FTUS44 KMEG 301722
TAFMKL
TAF
KMKL 301722Z 3018/0118 15015G25KT 6SM -SHRA VCTS SCT025CB OVC050
      TEMPO 3018/3020 3SM TSRA BKN025CB
     FM302000 19017G25KT P6SM VCSH BKN060 OVC100
     FM010100 20014G20KT P6SM SCT060 BKN100
     FM010600 22012G18KT P6SM FEW100
     FM011500 24018G26KT P6SM BKN040 BKN250=

USA.gov is the U.S. government's official web portal to all federal, state and local government web resources and services.